Terminal Aerodrome Forecast
Issued by NWS Knoxville/Tri Cities, TN

Home | Current Version | Previous Version | Text Only | Print | Product List | Glossary On
Versions: 1 2 3 4 5 6 7 8 9 10 11 12 13 14 15 16 17 18 19 20 21 22 23 24
000
FTUS44 KMRX 282320
TAFTRI
TAF
KTRI 282320Z 2900/2924 02003KT P6SM SKC
     FM290800 00000KT 3SM BR SKC
      TEMPO 2909/2912 1SM BR SCT002
     FM291300 22005KT P6SM SCT035=

USA.gov is the U.S. government's official web portal to all federal, state and local government web resources and services.